createdAt,value
2023-05-10T00:00:47.776Z,101311.88
2023-05-10T00:03:14.998Z,101319.56
2023-05-10T00:05:42.052Z,101315.63
2023-05-10T00:08:09.230Z,101314.66
2023-05-10T00:10:37.288Z,101323.69
2023-05-10T00:13:04.596Z,101314.34
2023-05-10T00:15:31.749Z,101318.75
2023-05-10T00:17:59.129Z,101319.69
2023-05-10T00:20:26.245Z,101309.09
2023-05-10T00:22:53.302Z,101309.97
2023-05-10T00:25:21.749Z,101309.28
2023-05-10T00:27:48.967Z,101310.63
2023-05-10T00:30:16.297Z,101312.56
2023-05-10T00:32:44.598Z,101315.13
2023-05-10T00:35:12.023Z,101305.31
2023-05-10T00:37:39.022Z,101306.88
2023-05-10T00:40:07.525Z,101307.56
2023-05-10T00:42:34.802Z,101303.25
2023-05-10T00:45:02.451Z,101306.44
2023-05-10T00:47:30.981Z,101307.44
2023-05-10T00:49:58.422Z,101302.91
2023-05-10T00:52:27.070Z,101301.19
2023-05-10T00:54:55.126Z,101296.44
2023-05-10T00:57:22.733Z,101295.63
2023-05-10T00:59:50.197Z,101292.28
2023-05-10T01:02:17.282Z,101290.44
2023-05-10T01:04:44.999Z,101296.56
2023-05-10T01:07:12.249Z,101290.16
2023-05-10T01:09:39.555Z,101294.41
2023-05-10T01:12:08.457Z,101295.00
2023-05-10T01:14:37.380Z,101302.38
2023-05-10T01:17:06.548Z,101300.47
2023-05-10T01:19:36.129Z,101297.44
2023-05-10T01:22:03.020Z,101289.56
2023-05-10T01:25:01.629Z,101295.16
2023-05-10T01:27:53.236Z,101297.91
2023-05-10T01:30:26.152Z,101305.38
2023-05-10T01:33:16.725Z,101299.75
2023-05-10T01:35:56.801Z,101298.97
2023-05-10T01:38:30.055Z,101295.13
2023-05-10T01:41:21.234Z,101291.56
2023-05-10T01:44:10.195Z,101297.22
2023-05-10T01:46:38.992Z,101292.06
2023-05-10T01:49:38.135Z,101287.75
2023-05-10T01:52:13.452Z,101293.00
2023-05-10T01:54:45.873Z,101298.16
2023-05-10T01:57:15.658Z,101291.97
2023-05-10T01:59:46.670Z,101287.28
2023-05-10T02:02:15.273Z,101289.81
2023-05-10T02:04:43.418Z,101291.34
2023-05-10T02:07:11.694Z,101290.13
2023-05-10T02:09:39.827Z,101283.78
2023-05-10T02:12:09.495Z,101282.34
2023-05-10T02:14:38.274Z,101282.09
2023-05-10T02:17:07.873Z,101281.47
2023-05-10T02:19:37.299Z,101285.94
2023-05-10T02:22:05.119Z,101287.44
2023-05-10T02:24:34.666Z,101287.06
2023-05-10T02:27:04.769Z,101293.31
2023-05-10T02:29:33.622Z,101281.97
2023-05-10T02:32:01.981Z,101293.50
2023-05-10T02:34:29.740Z,101285.66
2023-05-10T02:36:57.690Z,101283.25
2023-05-10T02:39:25.978Z,101290.44
2023-05-10T02:41:54.697Z,101285.94
2023-05-10T02:44:23.312Z,101289.38
2023-05-10T02:46:51.000Z,101285.66
2023-05-10T02:49:18.249Z,101287.06
2023-05-10T02:51:56.650Z,101286.94
2023-05-10T02:54:30.912Z,101288.63
2023-05-10T02:57:02.875Z,101285.31
2023-05-10T02:59:29.946Z,101284.56
2023-05-10T03:01:57.053Z,101277.94
2023-05-10T03:04:24.138Z,101282.47
2023-05-10T03:06:54.222Z,101284.53
2023-05-10T03:09:22.231Z,101287.22
2023-05-10T03:12:12.820Z,101296.03
2023-05-10T03:15:01.257Z,101295.31
2023-05-10T03:17:41.440Z,101300.63
2023-05-10T03:20:12.787Z,101293.81
2023-05-10T03:22:46.861Z,101292.03
2023-05-10T03:25:17.832Z,101298.31
2023-05-10T03:27:46.341Z,101296.63
2023-05-10T03:30:14.674Z,101295.25
2023-05-10T03:32:42.425Z,101302.66
2023-05-10T03:35:14.464Z,101292.31
2023-05-10T03:37:42.363Z,101292.22
2023-05-10T03:40:11.272Z,101298.81
2023-05-10T03:42:41.145Z,101303.94
2023-05-10T03:45:08.965Z,101304.25
2023-05-10T03:47:36.221Z,101300.75
2023-05-10T03:50:03.621Z,101299.16
2023-05-10T03:52:30.708Z,101298.22
2023-05-10T03:54:57.707Z,101309.63
2023-05-10T03:57:25.136Z,101314.66
2023-05-10T03:59:52.399Z,101299.25
2023-05-10T04:02:19.437Z,101309.06
2023-05-10T04:04:46.460Z,101297.75
2023-05-10T04:07:13.686Z,101310.97
2023-05-10T04:09:40.843Z,101297.88
2023-05-10T04:12:10.178Z,101308.47
2023-05-10T04:14:38.370Z,101304.16
2023-05-10T04:17:05.705Z,101312.94
2023-05-10T04:19:33.070Z,101316.47
2023-05-10T04:22:00.133Z,101305.06
2023-05-10T04:24:27.198Z,101305.06
2023-05-10T04:26:57.789Z,101308.47
2023-05-10T04:29:25.099Z,101300.38
2023-05-10T04:31:52.169Z,101300.41
2023-05-10T04:34:19.810Z,101303.88
2023-05-10T04:36:46.777Z,101304.81
2023-05-10T04:39:14.849Z,101306.34
2023-05-10T04:41:41.834Z,101305.66
2023-05-10T04:44:08.916Z,101299.22
2023-05-10T04:46:36.009Z,101301.78
2023-05-10T04:49:03.352Z,101303.69
2023-05-10T04:51:30.305Z,101307.22
2023-05-10T04:54:06.243Z,101300.03
2023-05-10T04:56:34.450Z,101296.63
2023-05-10T04:59:01.582Z,101295.34
2023-05-10T05:01:28.680Z,101298.88
2023-05-10T05:03:55.905Z,101286.53
2023-05-10T05:06:23.133Z,101289.16
2023-05-10T05:08:50.792Z,101291.78
2023-05-10T05:11:18.742Z,101302.19
2023-05-10T05:13:45.994Z,101299.47
2023-05-10T05:16:13.061Z,101303.72
2023-05-10T05:18:40.230Z,101292.97
2023-05-10T05:21:20.858Z,101302.03
2023-05-10T05:23:48.688Z,101303.81
2023-05-10T05:26:16.281Z,101304.53
2023-05-10T05:28:43.281Z,101299.06
2023-05-10T05:31:10.452Z,101299.59
2023-05-10T05:33:37.919Z,101310.94
2023-05-10T05:36:06.576Z,101301.97
2023-05-10T05:38:33.671Z,101305.47
2023-05-10T05:41:00.787Z,101296.34
2023-05-10T05:43:27.818Z,101297.03
2023-05-10T05:45:55.232Z,101303.06
2023-05-10T05:48:22.815Z,101301.72
2023-05-10T05:50:49.824Z,101301.31
2023-05-10T05:53:16.963Z,101299.84
2023-05-10T05:56:10.771Z,101294.50
2023-05-10T05:58:37.765Z,101298.09
2023-05-10T06:01:04.806Z,101301.25
2023-05-10T06:03:31.911Z,101305.13
2023-05-10T06:05:59.039Z,101306.97
2023-05-10T06:08:26.852Z,101308.00
2023-05-10T06:10:53.837Z,101308.25
2023-05-10T06:13:20.871Z,101309.09
2023-05-10T06:15:47.899Z,101307.03
2023-05-10T06:18:14.935Z,101310.03
2023-05-10T06:20:44.040Z,101305.72
2023-05-10T06:23:11.057Z,101307.09
2023-05-10T06:25:38.084Z,101299.72
2023-05-10T06:28:05.104Z,101308.13
2023-05-10T06:30:32.160Z,101305.47
2023-05-10T06:32:59.250Z,101301.78
2023-05-10T06:35:26.305Z,101304.44
2023-05-10T06:37:54.062Z,101294.84
2023-05-10T06:40:21.384Z,101302.47
2023-05-10T06:42:49.069Z,101300.41
2023-05-10T06:45:17.306Z,101307.03
2023-05-10T06:47:44.971Z,101300.91
2023-05-10T06:50:14.897Z,101305.72
2023-05-10T06:52:41.982Z,101318.19
2023-05-10T06:55:09.938Z,101303.63
2023-05-10T06:57:37.000Z,101297.94
2023-05-10T07:00:08.089Z,101316.66
2023-05-10T07:02:35.235Z,101313.66
2023-05-10T07:05:03.674Z,101315.94
2023-05-10T07:07:30.941Z,101308.09
2023-05-10T07:09:58.803Z,101311.09
2023-05-10T07:12:26.462Z,101323.03
2023-05-10T07:14:53.650Z,101313.69
2023-05-10T07:17:21.142Z,101312.81
2023-05-10T07:19:48.221Z,101317.34
2023-05-10T07:22:16.757Z,101323.91
2023-05-10T07:24:43.933Z,101314.25
2023-05-10T07:27:11.077Z,101311.75
2023-05-10T07:29:38.641Z,101308.88
2023-05-10T07:32:06.978Z,101316.91
2023-05-10T07:34:34.097Z,101323.13
2023-05-10T07:37:02.184Z,101325.19
2023-05-10T07:39:29.361Z,101328.75
2023-05-10T07:41:57.050Z,101332.13
2023-05-10T07:44:24.331Z,101321.53
2023-05-10T07:46:51.773Z,101329.28
2023-05-10T07:49:18.956Z,101329.91
2023-05-10T07:51:46.339Z,101327.06
2023-05-10T07:54:13.855Z,101333.13
2023-05-10T07:56:45.856Z,101330.66
2023-05-10T07:59:16.814Z,101330.41
2023-05-10T08:01:44.358Z,101324.97
2023-05-10T08:04:11.643Z,101334.94
2023-05-10T08:06:38.904Z,101328.88
2023-05-10T08:09:06.092Z,101336.41
2023-05-10T08:11:34.859Z,101326.13
2023-05-10T08:14:02.398Z,101337.63
2023-05-10T08:16:30.096Z,101344.94
2023-05-10T08:18:57.410Z,101343.22
2023-05-10T08:21:24.683Z,101337.06
2023-05-10T08:23:51.837Z,101347.03
2023-05-10T08:26:18.964Z,101347.78
2023-05-10T08:28:46.171Z,101340.34
2023-05-10T08:31:13.389Z,101348.50
2023-05-10T08:33:42.143Z,101348.75
2023-05-10T08:36:10.203Z,101348.66
2023-05-10T08:38:38.980Z,101341.28
2023-05-10T08:41:07.242Z,101342.50
2023-05-10T08:43:37.103Z,101344.31
2023-05-10T08:46:08.939Z,101350.69
2023-05-10T08:48:36.650Z,101352.88
2023-05-10T08:51:05.050Z,101347.63
2023-05-10T08:53:33.752Z,101359.00
2023-05-10T08:56:02.280Z,101360.63
2023-05-10T08:58:29.538Z,101350.91
2023-05-10T09:00:58.244Z,101358.06
2023-05-10T09:03:25.390Z,101363.41
2023-05-10T09:05:52.760Z,101363.38
2023-05-10T09:08:21.176Z,101354.41
2023-05-10T09:10:49.649Z,101351.75
2023-05-10T09:13:16.833Z,101350.72
2023-05-10T09:15:46.387Z,101339.28
2023-05-10T09:18:14.082Z,101347.66
2023-05-10T09:20:42.073Z,101351.00
2023-05-10T09:23:09.895Z,101336.25
2023-05-10T09:25:39.746Z,101349.38
2023-05-10T09:28:10.835Z,101342.63
2023-05-10T09:30:38.158Z,101347.41
2023-05-10T09:33:05.403Z,101343.03
2023-05-10T09:35:34.577Z,101345.69
2023-05-10T09:38:05.318Z,101341.03
2023-05-10T09:40:33.952Z,101349.09
2023-05-10T09:43:02.065Z,101348.22
2023-05-10T09:45:36.207Z,101347.69
2023-05-10T09:48:05.631Z,101360.03
2023-05-10T09:50:32.893Z,101353.06
2023-05-10T09:53:02.237Z,101340.09
2023-05-10T09:55:41.653Z,101357.88
2023-05-10T09:58:12.027Z,101355.72
2023-05-10T10:00:41.370Z,101356.88
2023-05-10T10:03:15.420Z,101347.47
2023-05-10T10:05:44.393Z,101352.22
2023-05-10T10:08:13.270Z,101351.81
2023-05-10T10:10:46.436Z,101348.91
2023-05-10T10:13:14.104Z,101353.09
2023-05-10T10:15:41.789Z,101348.28
2023-05-10T10:18:13.531Z,101351.06
2023-05-10T10:20:41.500Z,101365.38
2023-05-10T10:23:09.774Z,101355.44
2023-05-10T10:25:37.163Z,101351.25
2023-05-10T10:28:23.297Z,101350.25
2023-05-10T10:30:54.774Z,101365.84
2023-05-10T10:33:58.128Z,101356.88
2023-05-10T10:36:28.187Z,101356.59
2023-05-10T10:38:59.134Z,101364.34
2023-05-10T10:41:33.402Z,101362.66
2023-05-10T10:44:31.863Z,101350.44
2023-05-10T10:47:24.312Z,101352.91
2023-05-10T10:49:52.969Z,101366.72
2023-05-10T10:52:34.580Z,101368.09
2023-05-10T10:55:12.078Z,101364.09
2023-05-10T10:57:42.561Z,101372.16
2023-05-10T11:00:26.924Z,101378.25
2023-05-10T11:03:00.461Z,101361.31
2023-05-10T11:06:04.361Z,101352.47
2023-05-10T11:08:34.039Z,101371.97
2023-05-10T11:11:08.148Z,101367.59
2023-05-10T11:13:48.434Z,101372.44
2023-05-10T11:16:22.551Z,101371.00
2023-05-10T11:18:55.558Z,101363.41
2023-05-10T11:21:23.018Z,101371.47
2023-05-10T11:23:53.305Z,101364.28
2023-05-10T11:26:21.760Z,101356.75
2023-05-10T11:28:50.134Z,101352.75
2023-05-10T11:31:21.481Z,101358.97
2023-05-10T11:33:53.278Z,101362.03
2023-05-10T11:36:22.693Z,101360.13
2023-05-10T11:38:50.540Z,101362.59
2023-05-10T11:41:20.176Z,101368.63
2023-05-10T11:43:50.476Z,101351.19
2023-05-10T11:46:21.511Z,101358.06
2023-05-10T11:48:53.840Z,101349.53
2023-05-10T11:51:25.145Z,101348.53
2023-05-10T11:53:54.826Z,101355.59
2023-05-10T11:56:22.022Z,101342.69
2023-05-10T11:58:58.092Z,101365.25
2023-05-10T12:01:29.406Z,101359.41
2023-05-10T12:04:00.986Z,101342.72
2023-05-10T12:06:35.001Z,101348.63
2023-05-10T12:09:07.437Z,101346.94
2023-05-10T12:11:40.162Z,101340.44
2023-05-10T12:14:10.443Z,101345.72
2023-05-10T12:16:37.693Z,101357.19
2023-05-10T12:19:04.990Z,101349.22
2023-05-10T12:21:32.439Z,101339.34
2023-05-10T12:24:08.705Z,101340.88
2023-05-10T12:26:36.643Z,101341.16
2023-05-10T12:29:17.138Z,101338.19
2023-05-10T12:31:58.018Z,101332.09
2023-05-10T12:34:37.254Z,101317.00
2023-05-10T12:37:04.924Z,101325.16
2023-05-10T12:39:43.461Z,101323.63
2023-05-10T12:42:11.628Z,101319.69
2023-05-10T12:44:41.007Z,101313.94
2023-05-10T12:47:08.472Z,101318.00
2023-05-10T12:49:35.605Z,101319.38
2023-05-10T12:52:02.895Z,101323.69
2023-05-10T12:54:29.956Z,101323.84
2023-05-10T12:56:57.057Z,101318.66
2023-05-10T12:59:24.173Z,101325.81
2023-05-10T13:01:51.344Z,101310.66
2023-05-10T13:04:18.488Z,101309.19
2023-05-10T13:06:45.727Z,101317.91
2023-05-10T13:09:13.158Z,101303.91
2023-05-10T13:11:40.604Z,101307.47
2023-05-10T13:14:08.109Z,101296.88
2023-05-10T13:16:35.188Z,101309.88
2023-05-10T13:19:02.620Z,101322.63
2023-05-10T13:21:29.830Z,101309.09
2023-05-10T13:23:56.870Z,101315.66
2023-05-10T13:26:23.964Z,101301.53
2023-05-10T13:28:52.872Z,101294.44
2023-05-10T13:31:20.094Z,101295.91
2023-05-10T13:33:47.344Z,101311.25
2023-05-10T13:36:14.468Z,101308.19
2023-05-10T13:38:41.833Z,101301.56
2023-05-10T13:41:09.026Z,101303.41
2023-05-10T13:43:37.147Z,101306.22
2023-05-10T13:46:04.377Z,101297.09
2023-05-10T13:48:31.571Z,101284.44
2023-05-10T13:50:58.683Z,101298.63
2023-05-10T13:53:25.923Z,101291.78
2023-05-10T13:56:11.315Z,101286.56
2023-05-10T13:58:38.467Z,101291.22
2023-05-10T14:01:05.994Z,101297.53
2023-05-10T14:03:33.912Z,101287.78
2023-05-10T14:06:01.262Z,101287.69
2023-05-10T14:08:28.426Z,101295.72
2023-05-10T14:10:57.369Z,101293.97
2023-05-10T14:13:24.953Z,101287.84
2023-05-10T14:15:52.536Z,101295.78
2023-05-10T14:18:19.767Z,101303.72
2023-05-10T14:20:47.053Z,101287.72
2023-05-10T14:23:14.149Z,101284.97
2023-05-10T14:25:41.998Z,101295.72
2023-05-10T14:28:09.146Z,101294.88
2023-05-10T14:30:36.474Z,101293.09
2023-05-10T14:33:04.117Z,101286.06
2023-05-10T14:35:34.259Z,101293.97
2023-05-10T14:38:02.805Z,101301.94
2023-05-10T14:40:30.446Z,101294.03
2023-05-10T14:42:58.015Z,101298.44
2023-05-10T14:45:25.232Z,101298.53
2023-05-10T14:47:52.544Z,101288.88
2023-05-10T14:50:35.325Z,101284.44
2023-05-10T14:53:03.486Z,101293.22
2023-05-10T14:55:31.149Z,101295.75
2023-05-10T14:57:59.412Z,101293.84
2023-05-10T15:00:26.928Z,101286.72
2023-05-10T15:02:54.349Z,101295.03
2023-05-10T15:05:22.104Z,101298.34
2023-05-10T15:07:49.812Z,101287.56
2023-05-10T15:10:17.439Z,101289.56
2023-05-10T15:12:44.532Z,101294.19
2023-05-10T15:15:11.686Z,101297.69
2023-05-10T15:17:38.826Z,101289.63
2023-05-10T15:20:06.623Z,101292.47
2023-05-10T15:22:34.447Z,101291.63
2023-05-10T15:25:01.808Z,101279.75
2023-05-10T15:27:28.966Z,101284.97
2023-05-10T15:29:56.391Z,101288.84
2023-05-10T15:32:23.514Z,101297.84
2023-05-10T15:34:50.601Z,101297.03
2023-05-10T15:37:17.823Z,101286.50
2023-05-10T15:39:45.527Z,101295.22
2023-05-10T15:42:13.560Z,101298.84
2023-05-10T15:44:40.966Z,101298.81
2023-05-10T15:47:08.075Z,101297.06
2023-05-10T15:49:35.240Z,101295.28
2023-05-10T15:52:02.343Z,101295.13
2023-05-10T15:54:29.580Z,101293.53
2023-05-10T15:56:56.992Z,101301.53
2023-05-10T15:59:24.117Z,101308.59
2023-05-10T16:01:52.155Z,101295.38
2023-05-10T16:04:19.277Z,101310.31
2023-05-10T16:06:46.400Z,101301.56
2023-05-10T16:09:16.523Z,101300.66
2023-05-10T16:11:44.276Z,101302.44
2023-05-10T16:14:11.350Z,101300.66
2023-05-10T16:16:38.520Z,101300.63
2023-05-10T16:19:05.826Z,101313.00
2023-05-10T16:21:33.516Z,101311.22
2023-05-10T16:24:01.208Z,101308.59
2023-05-10T16:26:28.337Z,101315.59
2023-05-10T16:28:55.502Z,101312.94
2023-05-10T16:31:23.405Z,101322.63
2023-05-10T16:33:50.585Z,101323.53
2023-05-10T16:36:17.617Z,101328.78
2023-05-10T16:38:44.762Z,101332.28
2023-05-10T16:41:11.917Z,101342.81
2023-05-10T16:43:39.047Z,101336.66
2023-05-10T16:46:11.529Z,101334.88
2023-05-10T16:48:38.941Z,101332.25
2023-05-10T16:51:06.057Z,101327.91
2023-05-10T16:53:33.160Z,101319.16
2023-05-10T16:56:00.291Z,101327.94
2023-05-10T16:58:27.400Z,101325.28
2023-05-10T17:00:54.498Z,101325.25
2023-05-10T17:03:21.659Z,101319.09
2023-05-10T17:05:48.778Z,101325.22
2023-05-10T17:08:16.645Z,101335.69
2023-05-10T17:10:43.916Z,101332.16
2023-05-10T17:13:11.187Z,101329.50
2023-05-10T17:15:39.444Z,101331.38
2023-05-10T17:18:07.630Z,101328.78
2023-05-10T17:20:35.024Z,101323.50
2023-05-10T17:23:03.441Z,101341.09
2023-05-10T17:25:30.826Z,101332.28
2023-05-10T17:27:57.919Z,101345.50
2023-05-10T17:30:28.354Z,101340.22
2023-05-10T17:32:55.747Z,101348.94
2023-05-10T17:35:22.873Z,101350.69
2023-05-10T17:37:49.920Z,101355.13
2023-05-10T17:40:17.316Z,101358.69
2023-05-10T17:42:44.933Z,101359.53
2023-05-10T17:45:12.193Z,101365.69
2023-05-10T17:47:39.324Z,101363.03
2023-05-10T17:50:07.250Z,101354.25
2023-05-10T17:52:34.309Z,101360.44
2023-05-10T17:55:01.718Z,101366.63
2023-05-10T17:57:28.854Z,101366.63
2023-05-10T17:59:56.064Z,101367.50
2023-05-10T18:02:23.283Z,101370.13
2023-05-10T18:04:50.539Z,101380.72
2023-05-10T18:07:17.782Z,101376.31
2023-05-10T18:09:45.310Z,101375.41
2023-05-10T18:12:12.556Z,101373.66
2023-05-10T18:14:41.466Z,101385.09
2023-05-10T18:17:10.154Z,101381.59
2023-05-10T18:19:37.425Z,101386.88
2023-05-10T18:22:05.337Z,101383.34
2023-05-10T18:27:03.563Z,101387.72
2023-05-10T18:29:30.689Z,101393.88
2023-05-10T18:31:57.784Z,101394.78
2023-05-10T18:34:24.974Z,101405.31
2023-05-10T18:36:52.564Z,101405.34
2023-05-10T18:39:19.870Z,101404.47
2023-05-10T18:41:47.026Z,101402.66
2023-05-10T18:44:14.665Z,101397.44
2023-05-10T18:46:42.682Z,101400.94
2023-05-10T18:49:09.902Z,101396.53
2023-05-10T18:51:36.953Z,101400.06
2023-05-10T18:54:04.649Z,101404.47
2023-05-10T18:56:31.772Z,101403.59
2023-05-10T18:58:59.078Z,101402.72
2023-05-10T19:01:26.255Z,101400.94
2023-05-10T19:03:53.382Z,101401.81
2023-05-10T19:06:20.957Z,101399.19
2023-05-10T19:08:48.139Z,101394.78
2023-05-10T19:11:15.737Z,101404.47
2023-05-10T19:13:42.986Z,101402.66
2023-05-10T19:16:16.681Z,101402.63
2023-05-10T19:18:45.218Z,101401.75
2023-05-10T19:21:13.901Z,101397.31
2023-05-10T19:23:42.089Z,101399.06
2023-05-10T19:26:11.105Z,101404.41
2023-05-10T19:28:38.690Z,101392.09
2023-05-10T19:31:05.776Z,101394.75
2023-05-10T19:33:33.019Z,101398.19
2023-05-10T19:36:00.095Z,101397.31
2023-05-10T19:38:27.278Z,101391.09
2023-05-10T19:41:00.486Z,101393.72
2023-05-10T19:43:29.569Z,101398.03
2023-05-10T19:46:01.978Z,101391.88
2023-05-10T19:48:29.480Z,101391.00
2023-05-10T19:51:04.830Z,101394.56
2023-05-10T19:53:33.563Z,101391.81
2023-05-10T19:56:07.297Z,101399.72
2023-05-10T19:58:34.719Z,101402.44
2023-05-10T20:01:01.930Z,101401.56
2023-05-10T20:03:29.328Z,101394.59
2023-05-10T20:05:56.543Z,101391.91
2023-05-10T20:08:23.650Z,101393.69
2023-05-10T20:10:50.908Z,101391.81
2023-05-10T20:13:18.153Z,101396.25
2023-05-10T20:15:46.472Z,101386.59
2023-05-10T20:18:13.643Z,101383.88
2023-05-10T20:20:40.898Z,101383.00
2023-05-10T20:23:07.971Z,101384.72
2023-05-10T20:25:35.656Z,101379.38
2023-05-10T20:28:03.164Z,101380.22
2023-05-10T20:30:30.241Z,101378.41
2023-05-10T20:32:57.428Z,101376.53
2023-05-10T20:35:24.599Z,101371.34
2023-05-10T20:37:51.693Z,101372.22
2023-05-10T20:40:19.093Z,101381.22
2023-05-10T20:42:46.381Z,101382.06
2023-05-10T20:45:13.455Z,101382.00
2023-05-10T20:47:40.651Z,101388.06
2023-05-10T20:50:08.226Z,101375.88
2023-05-10T20:52:35.289Z,101379.44
2023-05-10T20:55:02.366Z,101377.41
2023-05-10T20:57:29.449Z,101377.59
2023-05-10T20:59:57.606Z,101374.06
2023-05-10T21:02:24.715Z,101374.69
2023-05-10T21:04:52.098Z,101374.69
2023-05-10T21:07:19.255Z,101377.59
2023-05-10T21:09:46.530Z,101376.66
2023-05-10T21:12:13.798Z,101371.44
2023-05-10T21:14:42.444Z,101378.25
2023-05-10T21:17:09.722Z,101373.91
2023-05-10T21:19:36.845Z,101375.66
2023-05-10T21:22:04.004Z,101376.53
2023-05-10T21:24:31.125Z,101366.13
2023-05-10T21:26:58.217Z,101370.53
2023-05-10T21:29:25.272Z,101369.41
2023-05-10T21:31:52.386Z,101369.59
2023-05-10T21:34:19.472Z,101363.53
2023-05-10T21:36:46.549Z,101370.59
2023-05-10T21:39:13.764Z,101364.34
2023-05-10T21:41:41.052Z,101361.75
2023-05-10T21:44:08.104Z,101364.38
2023-05-10T21:46:35.172Z,101353.94
2023-05-10T21:49:02.291Z,101355.63
2023-05-10T21:51:29.370Z,101358.28
2023-05-10T21:53:56.507Z,101368.06
2023-05-10T21:56:23.723Z,101355.81
2023-05-10T21:58:50.957Z,101361.00
2023-05-10T22:01:18.211Z,101360.13
2023-05-10T22:03:45.432Z,101361.00
2023-05-10T22:06:12.666Z,101359.22
2023-05-10T22:08:39.831Z,101360.81
2023-05-10T22:11:06.908Z,101348.63
2023-05-10T22:13:34.043Z,101351.31
2023-05-10T22:16:01.154Z,101352.13
2023-05-10T22:18:28.270Z,101357.44
2023-05-10T22:20:55.349Z,101349.72
2023-05-10T22:23:22.593Z,101354.97
2023-05-10T22:25:49.696Z,101352.25
2023-05-10T22:28:16.860Z,101357.03
2023-05-10T22:30:44.163Z,101353.47
2023-05-10T22:33:11.259Z,101361.22
2023-05-10T22:35:38.377Z,101358.84
2023-05-10T22:38:05.604Z,101356.34
2023-05-10T22:40:32.870Z,101358.00
2023-05-10T22:42:59.983Z,101355.28
2023-05-10T22:45:27.406Z,101354.34
2023-05-10T22:47:54.646Z,101354.56
2023-05-10T22:50:21.860Z,101355.53
2023-05-10T22:52:48.956Z,101351.91
2023-05-10T22:55:16.219Z,101350.22
2023-05-10T22:57:43.431Z,101345.94
2023-05-10T23:00:11.043Z,101344.25
2023-05-10T23:02:38.221Z,101335.31
2023-05-10T23:05:05.955Z,101340.69
2023-05-10T23:07:33.241Z,101350.41
2023-05-10T23:10:00.275Z,101342.63
2023-05-10T23:12:27.359Z,101339.19
2023-05-10T23:14:54.923Z,101336.53
2023-05-10T23:17:22.219Z,101340.94
2023-05-10T23:19:49.250Z,101339.09
2023-05-10T23:22:16.327Z,101334.75
2023-05-10T23:24:43.491Z,101333.84
2023-05-10T23:27:11.465Z,101326.84
2023-05-10T23:29:38.481Z,101335.53
2023-05-10T23:32:05.819Z,101339.00
2023-05-10T23:34:32.900Z,101337.06
2023-05-10T23:37:00.029Z,101345.78
2023-05-10T23:39:27.068Z,101338.72
2023-05-10T23:41:54.204Z,101332.63
2023-05-10T23:44:21.247Z,101335.53
2023-05-10T23:46:48.272Z,101334.75
2023-05-10T23:49:15.415Z,101334.75
2023-05-10T23:51:42.446Z,101342.66
2023-05-10T23:54:09.646Z,101348.63
2023-05-10T23:56:36.726Z,101342.28
2023-05-10T23:59:05.991Z,101330.88
